sensor_id;sensor_type;location;lat;lon;timestamp;temperature;humidity
65972;SHT31;52726;48.852;9.152;2022-07-29T00:00:22;19.93;77.25
65972;SHT31;52726;48.852;9.152;2022-07-29T00:02:47;19.84;77.75
65972;SHT31;52726;48.852;9.152;2022-07-29T00:05:13;19.76;78.17
65972;SHT31;52726;48.852;9.152;2022-07-29T00:07:39;19.66;78.24
65972;SHT31;52726;48.852;9.152;2022-07-29T00:10:05;19.69;78.91
65972;SHT31;52726;48.852;9.152;2022-07-29T00:12:30;19.72;77.98
65972;SHT31;52726;48.852;9.152;2022-07-29T00:14:56;19.69;78.25
65972;SHT31;52726;48.852;9.152;2022-07-29T00:17:23;19.66;78.28
65972;SHT31;52726;48.852;9.152;2022-07-29T00:19:48;19.63;78.15
65972;SHT31;52726;48.852;9.152;2022-07-29T00:22:14;19.59;78.20
65972;SHT31;52726;48.852;9.152;2022-07-29T00:24:40;19.55;77.63
65972;SHT31;52726;48.852;9.152;2022-07-29T00:27:05;19.56;79.43
65972;SHT31;52726;48.852;9.152;2022-07-29T00:29:31;19.46;79.47
65972;SHT31;52726;48.852;9.152;2022-07-29T00:31:56;19.46;79.23
65972;SHT31;52726;48.852;9.152;2022-07-29T00:34:21;19.38;79.96
65972;SHT31;52726;48.852;9.152;2022-07-29T00:37:05;19.29;80.06
65972;SHT31;52726;48.852;9.152;2022-07-29T00:39:31;19.29;80.05
65972;SHT31;52726;48.852;9.152;2022-07-29T00:41:56;19.26;80.19
65972;SHT31;52726;48.852;9.152;2022-07-29T00:44:22;19.32;80.50
65972;SHT31;52726;48.852;9.152;2022-07-29T00:46:47;19.32;80.15
65972;SHT31;52726;48.852;9.152;2022-07-29T00:49:12;19.29;80.22
65972;SHT31;52726;48.852;9.152;2022-07-29T00:51:38;19.25;80.52
65972;SHT31;52726;48.852;9.152;2022-07-29T00:54:04;19.25;80.47
65972;SHT31;52726;48.852;9.152;2022-07-29T00:56:31;19.19;80.66
65972;SHT31;52726;48.852;9.152;2022-07-29T00:58:58;19.18;80.34
65972;SHT31;52726;48.852;9.152;2022-07-29T01:01:23;19.21;81.00
65972;SHT31;52726;48.852;9.152;2022-07-29T01:03:49;19.26;80.26
65972;SHT31;52726;48.852;9.152;2022-07-29T01:06:16;19.34;80.18
65972;SHT31;52726;48.852;9.152;2022-07-29T01:08:42;19.39;80.08
65972;SHT31;52726;48.852;9.152;2022-07-29T01:11:08;19.42;78.07
65972;SHT31;52726;48.852;9.152;2022-07-29T01:13:34;19.51;77.42
65972;SHT31;52726;48.852;9.152;2022-07-29T01:19:57;19.58;78.82
65972;SHT31;52726;48.852;9.152;2022-07-29T01:21:58;19.62;78.61
65972;SHT31;52726;48.852;9.152;2022-07-29T01:27:04;19.65;77.58
65972;SHT31;52726;48.852;9.152;2022-07-29T01:29:36;19.65;77.52
65972;SHT31;52726;48.852;9.152;2022-07-29T01:32:09;19.63;78.16
65972;SHT31;52726;48.852;9.152;2022-07-29T01:35:04;19.63;77.74
65972;SHT31;52726;48.852;9.152;2022-07-29T01:37:45;19.62;78.73
65972;SHT31;52726;48.852;9.152;2022-07-29T01:41:15;19.56;78.50
65972;SHT31;52726;48.852;9.152;2022-07-29T01:43:38;19.55;78.97
65972;SHT31;52726;48.852;9.152;2022-07-29T01:46:14;19.49;78.97
65972;SHT31;52726;48.852;9.152;2022-07-29T01:48:45;19.43;77.72
65972;SHT31;52726;48.852;9.152;2022-07-29T01:51:21;19.49;78.75
65972;SHT31;52726;48.852;9.152;2022-07-29T01:54:04;19.45;78.02
65972;SHT31;52726;48.852;9.152;2022-07-29T01:56:32;19.46;77.83
65972;SHT31;52726;48.852;9.152;2022-07-29T01:58:59;19.46;78.12
65972;SHT31;52726;48.852;9.152;2022-07-29T02:01:26;19.45;78.13
65972;SHT31;52726;48.852;9.152;2022-07-29T02:03:53;19.42;78.88
65972;SHT31;52726;48.852;9.152;2022-07-29T02:06:22;19.36;78.16
65972;SHT31;52726;48.852;9.152;2022-07-29T02:08:49;19.36;77.57
65972;SHT31;52726;48.852;9.152;2022-07-29T02:11:16;19.36;78.74
65972;SHT31;52726;48.852;9.152;2022-07-29T02:13:42;19.29;78.63
65972;SHT31;52726;48.852;9.152;2022-07-29T02:16:09;19.26;78.34
65972;SHT31;52726;48.852;9.152;2022-07-29T02:18:37;19.26;79.68
65972;SHT31;52726;48.852;9.152;2022-07-29T02:21:04;19.21;79.97
65972;SHT31;52726;48.852;9.152;2022-07-29T02:23:32;19.00;81.06
65972;SHT31;52726;48.852;9.152;2022-07-29T02:25:59;18.86;81.29
65972;SHT31;52726;48.852;9.152;2022-07-29T02:28:26;18.80;82.24
65972;SHT31;52726;48.852;9.152;2022-07-29T02:30:54;18.80;82.36
65972;SHT31;52726;48.852;9.152;2022-07-29T02:33:23;18.76;82.46
65972;SHT31;52726;48.852;9.152;2022-07-29T02:35:50;18.76;82.74
65972;SHT31;52726;48.852;9.152;2022-07-29T02:38:16;18.73;83.05
65972;SHT31;52726;48.852;9.152;2022-07-29T02:41:05;18.64;83.30
65972;SHT31;52726;48.852;9.152;2022-07-29T02:43:33;18.63;83.05
65972;SHT31;52726;48.852;9.152;2022-07-29T02:46:00;18.59;83.04
65972;SHT31;52726;48.852;9.152;2022-07-29T02:48:31;18.55;83.11
65972;SHT31;52726;48.852;9.152;2022-07-29T02:51:08;18.57;82.53
65972;SHT31;52726;48.852;9.152;2022-07-29T02:53:38;18.59;83.09
65972;SHT31;52726;48.852;9.152;2022-07-29T02:56:14;18.52;83.06
65972;SHT31;52726;48.852;9.152;2022-07-29T02:58:45;18.53;83.21
65972;SHT31;52726;48.852;9.152;2022-07-29T03:01:15;18.42;83.22
65972;SHT31;52726;48.852;9.152;2022-07-29T03:03:44;18.35;83.52
65972;SHT31;52726;48.852;9.152;2022-07-29T03:06:12;18.25;84.46
65972;SHT31;52726;48.852;9.152;2022-07-29T03:08:38;18.02;84.54
65972;SHT31;52726;48.852;9.152;2022-07-29T03:11:05;17.88;85.22
65972;SHT31;52726;48.852;9.152;2022-07-29T03:13:30;17.84;85.44
65972;SHT31;52726;48.852;9.152;2022-07-29T03:15:58;17.75;85.08
65972;SHT31;52726;48.852;9.152;2022-07-29T03:18:24;17.82;85.57
65972;SHT31;52726;48.852;9.152;2022-07-29T03:20:51;17.87;85.16
65972;SHT31;52726;48.852;9.152;2022-07-29T03:23:20;17.84;84.92
65972;SHT31;52726;48.852;9.152;2022-07-29T03:25:48;17.85;85.49
65972;SHT31;52726;48.852;9.152;2022-07-29T03:28:13;17.88;85.25
65972;SHT31;52726;48.852;9.152;2022-07-29T03:30:39;17.92;85.69
65972;SHT31;52726;48.852;9.152;2022-07-29T03:33:04;17.87;85.87
65972;SHT31;52726;48.852;9.152;2022-07-29T03:35:29;17.90;86.02
65972;SHT31;52726;48.852;9.152;2022-07-29T03:37:56;17.90;85.32
65972;SHT31;52726;48.852;9.152;2022-07-29T03:40:44;17.94;85.49
65972;SHT31;52726;48.852;9.152;2022-07-29T03:43:13;17.90;85.56
65972;SHT31;52726;48.852;9.152;2022-07-29T03:45:44;17.90;85.72
65972;SHT31;52726;48.852;9.152;2022-07-29T03:48:13;17.88;85.76
65972;SHT31;52726;48.852;9.152;2022-07-29T03:50:39;17.94;85.92
65972;SHT31;52726;48.852;9.152;2022-07-29T03:53:05;17.92;85.42
65972;SHT31;52726;48.852;9.152;2022-07-29T03:55:38;17.88;85.56
65972;SHT31;52726;48.852;9.152;2022-07-29T03:58:05;17.90;86.06
65972;SHT31;52726;48.852;9.152;2022-07-29T04:00:33;17.87;85.58
65972;SHT31;52726;48.852;9.152;2022-07-29T04:02:59;17.87;85.81
65972;SHT31;52726;48.852;9.152;2022-07-29T04:05:25;17.82;85.71
65972;SHT31;52726;48.852;9.152;2022-07-29T04:07:50;17.77;86.48
65972;SHT31;52726;48.852;9.152;2022-07-29T04:10:16;17.67;86.62
65972;SHT31;52726;48.852;9.152;2022-07-29T04:12:42;17.64;86.66
65972;SHT31;52726;48.852;9.152;2022-07-29T04:15:08;17.64;86.78
65972;SHT31;52726;48.852;9.152;2022-07-29T04:17:33;17.64;86.39
65972;SHT31;52726;48.852;9.152;2022-07-29T04:19:59;17.71;86.40
65972;SHT31;52726;48.852;9.152;2022-07-29T04:22:24;17.75;86.72
65972;SHT31;52726;48.852;9.152;2022-07-29T04:24:50;17.80;86.82
65972;SHT31;52726;48.852;9.152;2022-07-29T04:27:15;17.82;86.38
65972;SHT31;52726;48.852;9.152;2022-07-29T04:29:40;17.85;85.75
65972;SHT31;52726;48.852;9.152;2022-07-29T04:32:06;17.97;84.59
65972;SHT31;52726;48.852;9.152;2022-07-29T04:34:31;18.04;85.12
65972;SHT31;52726;48.852;9.152;2022-07-29T04:36:57;18.11;84.31
65972;SHT31;52726;48.852;9.152;2022-07-29T04:39:22;18.13;84.59
65972;SHT31;52726;48.852;9.152;2022-07-29T04:41:48;18.13;85.15
65972;SHT31;52726;48.852;9.152;2022-07-29T04:44:14;18.13;84.66
65972;SHT31;52726;48.852;9.152;2022-07-29T04:46:39;18.13;85.03
65972;SHT31;52726;48.852;9.152;2022-07-29T04:49:05;18.16;84.83
65972;SHT31;52726;48.852;9.152;2022-07-29T04:51:30;18.19;84.56
65972;SHT31;52726;48.852;9.152;2022-07-29T04:53:56;18.24;83.44
65972;SHT31;52726;48.852;9.152;2022-07-29T04:56:21;18.33;84.20
65972;SHT31;52726;48.852;9.152;2022-07-29T04:58:47;18.43;84.19
65972;SHT31;52726;48.852;9.152;2022-07-29T05:01:12;18.47;84.10
65972;SHT31;52726;48.852;9.152;2022-07-29T05:03:39;18.53;83.04
65972;SHT31;52726;48.852;9.152;2022-07-29T05:06:04;18.49;83.88
65972;SHT31;52726;48.852;9.152;2022-07-29T05:08:30;18.53;83.81
65972;SHT31;52726;48.852;9.152;2022-07-29T05:10:55;18.55;83.98
65972;SHT31;52726;48.852;9.152;2022-07-29T05:13:21;18.55;83.44
65972;SHT31;52726;48.852;9.152;2022-07-29T05:15:46;18.59;83.77
65972;SHT31;52726;48.852;9.152;2022-07-29T05:18:11;18.61;84.07
65972;SHT31;52726;48.852;9.152;2022-07-29T05:20:37;18.67;83.39
65972;SHT31;52726;48.852;9.152;2022-07-29T05:23:02;18.81;83.39
65972;SHT31;52726;48.852;9.152;2022-07-29T05:25:28;18.91;83.03
65972;SHT31;52726;48.852;9.152;2022-07-29T05:27:54;19.01;82.16
65972;SHT31;52726;48.852;9.152;2022-07-29T05:30:20;19.11;82.98
65972;SHT31;52726;48.852;9.152;2022-07-29T05:32:45;19.18;82.80
65972;SHT31;52726;48.852;9.152;2022-07-29T05:35:11;19.18;82.07
65972;SHT31;52726;48.852;9.152;2022-07-29T05:37:37;19.25;82.39
65972;SHT31;52726;48.852;9.152;2022-07-29T05:40:03;19.32;82.36
65972;SHT31;52726;48.852;9.152;2022-07-29T05:42:29;19.43;80.90
65972;SHT31;52726;48.852;9.152;2022-07-29T05:44:54;19.51;80.90
65972;SHT31;52726;48.852;9.152;2022-07-29T05:47:20;19.66;80.28
65972;SHT31;52726;48.852;9.152;2022-07-29T05:49:46;19.76;80.44
65972;SHT31;52726;48.852;9.152;2022-07-29T05:52:11;19.84;77.83
65972;SHT31;52726;48.852;9.152;2022-07-29T05:54:38;19.97;77.74
65972;SHT31;52726;48.852;9.152;2022-07-29T05:57:04;20.11;76.63
65972;SHT31;52726;48.852;9.152;2022-07-29T05:59:30;20.22;76.20
65972;SHT31;52726;48.852;9.152;2022-07-29T06:01:56;20.39;75.50
65972;SHT31;52726;48.852;9.152;2022-07-29T06:04:22;20.56;73.83
65972;SHT31;52726;48.852;9.152;2022-07-29T06:06:48;20.66;72.23
65972;SHT31;52726;48.852;9.152;2022-07-29T06:09:13;20.86;73.73
65972;SHT31;52726;48.852;9.152;2022-07-29T06:11:39;20.97;72.63
65972;SHT31;52726;48.852;9.152;2022-07-29T06:14:04;21.10;74.05
65972;SHT31;52726;48.852;9.152;2022-07-29T06:16:30;21.24;73.44
65972;SHT31;52726;48.852;9.152;2022-07-29T06:18:55;21.33;72.18
65972;SHT31;52726;48.852;9.152;2022-07-29T06:21:21;21.52;71.38
65972;SHT31;52726;48.852;9.152;2022-07-29T06:23:46;21.72;71.40
65972;SHT31;52726;48.852;9.152;2022-07-29T06:26:11;21.89;71.38
65972;SHT31;52726;48.852;9.152;2022-07-29T06:28:37;21.96;70.49
65972;SHT31;52726;48.852;9.152;2022-07-29T06:31:02;22.00;69.77
65972;SHT31;52726;48.852;9.152;2022-07-29T06:33:27;22.19;70.21
65972;SHT31;52726;48.852;9.152;2022-07-29T06:35:53;22.26;69.23
65972;SHT31;52726;48.852;9.152;2022-07-29T06:38:18;22.53;68.03
65972;SHT31;52726;48.852;9.152;2022-07-29T06:40:44;22.58;68.47
65972;SHT31;52726;48.852;9.152;2022-07-29T06:43:27;22.72;67.68
65972;SHT31;52726;48.852;9.152;2022-07-29T06:45:54;22.81;66.49
65972;SHT31;52726;48.852;9.152;2022-07-29T06:48:19;22.76;66.37
65972;SHT31;52726;48.852;9.152;2022-07-29T06:50:44;22.81;67.65
65972;SHT31;52726;48.852;9.152;2022-07-29T06:53:10;22.91;68.57
65972;SHT31;52726;48.852;9.152;2022-07-29T06:55:35;23.33;66.07
65972;SHT31;52726;48.852;9.152;2022-07-29T06:58:02;23.81;65.28
65972;SHT31;52726;48.852;9.152;2022-07-29T07:00:27;24.66;62.54
65972;SHT31;52726;48.852;9.152;2022-07-29T07:02:52;25.67;61.08
65972;SHT31;52726;48.852;9.152;2022-07-29T07:05:18;26.01;56.91
65972;SHT31;52726;48.852;9.152;2022-07-29T07:07:43;26.14;55.78
65972;SHT31;52726;48.852;9.152;2022-07-29T07:10:09;25.97;57.64
65972;SHT31;52726;48.852;9.152;2022-07-29T07:12:34;26.37;54.43
65972;SHT31;52726;48.852;9.152;2022-07-29T07:14:59;25.83;58.59
65972;SHT31;52726;48.852;9.152;2022-07-29T07:17:25;25.18;59.12
65972;SHT31;52726;48.852;9.152;2022-07-29T07:19:50;25.27;58.67
65972;SHT31;52726;48.852;9.152;2022-07-29T07:22:15;25.61;59.35
65972;SHT31;52726;48.852;9.152;2022-07-29T07:24:41;25.66;57.64
65972;SHT31;52726;48.852;9.152;2022-07-29T07:27:06;25.21;57.20
65972;SHT31;52726;48.852;9.152;2022-07-29T07:29:32;25.61;58.21
65972;SHT31;52726;48.852;9.152;2022-07-29T07:31:57;25.92;57.53
65972;SHT31;52726;48.852;9.152;2022-07-29T07:34:23;25.39;58.36
65972;SHT31;52726;48.852;9.152;2022-07-29T07:36:48;25.93;56.76
65972;SHT31;52726;48.852;9.152;2022-07-29T07:39:14;25.94;55.92
65972;SHT31;52726;48.852;9.152;2022-07-29T07:41:39;25.79;56.56
65972;SHT31;52726;48.852;9.152;2022-07-29T07:44:04;25.75;57.46
65972;SHT31;52726;48.852;9.152;2022-07-29T07:46:31;25.70;56.52
65972;SHT31;52726;48.852;9.152;2022-07-29T07:48:56;26.68;57.11
65972;SHT31;52726;48.852;9.152;2022-07-29T07:51:22;26.85;54.58
65972;SHT31;52726;48.852;9.152;2022-07-29T07:53:47;27.10;54.07
65972;SHT31;52726;48.852;9.152;2022-07-29T07:56:15;27.85;52.90
65972;SHT31;52726;48.852;9.152;2022-07-29T07:58:41;28.12;52.15
65972;SHT31;52726;48.852;9.152;2022-07-29T08:01:07;27.02;55.83
65972;SHT31;52726;48.852;9.152;2022-07-29T08:03:33;26.61;54.63
65972;SHT31;52726;48.852;9.152;2022-07-29T08:05:58;26.12;56.35
65972;SHT31;52726;48.852;9.152;2022-07-29T08:08:24;26.41;56.37
65972;SHT31;52726;48.852;9.152;2022-07-29T08:10:49;27.09;54.46
65972;SHT31;52726;48.852;9.152;2022-07-29T08:13:18;27.91;53.32
65972;SHT31;52726;48.852;9.152;2022-07-29T08:15:44;27.09;53.10
65972;SHT31;52726;48.852;9.152;2022-07-29T08:18:11;27.07;54.20
65972;SHT31;52726;48.852;9.152;2022-07-29T08:20:37;27.37;52.94
65972;SHT31;52726;48.852;9.152;2022-07-29T08:23:05;28.19;52.26
65972;SHT31;52726;48.852;9.152;2022-07-29T08:25:32;28.16;51.55
65972;SHT31;52726;48.852;9.152;2022-07-29T08:27:58;28.01;48.93
65972;SHT31;52726;48.852;9.152;2022-07-29T08:30:24;28.36;50.01
65972;SHT31;52726;48.852;9.152;2022-07-29T08:32:49;28.95;48.78
65972;SHT31;52726;48.852;9.152;2022-07-29T08:35:22;29.04;48.04
65972;SHT31;52726;48.852;9.152;2022-07-29T08:37:48;28.50;50.78
65972;SHT31;52726;48.852;9.152;2022-07-29T08:40:13;28.36;50.11
65972;SHT31;52726;48.852;9.152;2022-07-29T08:42:39;27.64;51.52
65972;SHT31;52726;48.852;9.152;2022-07-29T08:45:05;27.77;49.14
65972;SHT31;52726;48.852;9.152;2022-07-29T08:47:31;28.02;49.36
65972;SHT31;52726;48.852;9.152;2022-07-29T08:49:56;28.08;49.34
65972;SHT31;52726;48.852;9.152;2022-07-29T08:52:25;28.29;48.69
65972;SHT31;52726;48.852;9.152;2022-07-29T08:54:52;28.65;45.98
65972;SHT31;52726;48.852;9.152;2022-07-29T08:57:18;29.37;44.51
65972;SHT31;52726;48.852;9.152;2022-07-29T08:59:46;29.77;45.30
65972;SHT31;52726;48.852;9.152;2022-07-29T09:02:19;30.08;44.54
65972;SHT31;52726;48.852;9.152;2022-07-29T09:04:45;30.24;42.23
65972;SHT31;52726;48.852;9.152;2022-07-29T09:07:14;29.85;44.73
65972;SHT31;52726;48.852;9.152;2022-07-29T09:09:40;29.66;45.02
65972;SHT31;52726;48.852;9.152;2022-07-29T09:12:06;29.70;44.13
65972;SHT31;52726;48.852;9.152;2022-07-29T09:14:33;29.39;45.15
65972;SHT31;52726;48.852;9.152;2022-07-29T09:16:59;30.32;44.71
65972;SHT31;52726;48.852;9.152;2022-07-29T09:19:30;30.38;43.57
65972;SHT31;52726;48.852;9.152;2022-07-29T09:21:58;29.35;45.04
65972;SHT31;52726;48.852;9.152;2022-07-29T09:24:42;29.39;45.02
65972;SHT31;52726;48.852;9.152;2022-07-29T09:27:22;28.65;46.42
65972;SHT31;52726;48.852;9.152;2022-07-29T09:29:59;28.88;45.42
65972;SHT31;52726;48.852;9.152;2022-07-29T09:32:25;28.90;46.22
65972;SHT31;52726;48.852;9.152;2022-07-29T09:35:14;29.27;44.99
65972;SHT31;52726;48.852;9.152;2022-07-29T09:37:41;28.78;45.22
65972;SHT31;52726;48.852;9.152;2022-07-29T09:40:14;29.60;44.84
65972;SHT31;52726;48.852;9.152;2022-07-29T09:42:41;30.38;42.67
65972;SHT31;52726;48.852;9.152;2022-07-29T09:45:07;29.81;43.66
65972;SHT31;52726;48.852;9.152;2022-07-29T09:47:46;28.91;45.90
65972;SHT31;52726;48.852;9.152;2022-07-29T09:50:14;29.05;45.01
65972;SHT31;52726;48.852;9.152;2022-07-29T09:52:51;29.27;43.63
65972;SHT31;52726;48.852;9.152;2022-07-29T09:55:18;29.43;43.93
65972;SHT31;52726;48.852;9.152;2022-07-29T09:57:45;29.39;45.72
65972;SHT31;52726;48.852;9.152;2022-07-29T10:00:13;29.22;44.04
65972;SHT31;52726;48.852;9.152;2022-07-29T10:02:44;29.40;44.60
65972;SHT31;52726;48.852;9.152;2022-07-29T10:05:21;29.14;45.25
65972;SHT31;52726;48.852;9.152;2022-07-29T10:07:50;28.70;45.93
65972;SHT31;52726;48.852;9.152;2022-07-29T10:10:30;28.50;47.01
65972;SHT31;52726;48.852;9.152;2022-07-29T10:12:58;27.69;48.42
65972;SHT31;52726;48.852;9.152;2022-07-29T10:15:25;27.26;49.36
65972;SHT31;52726;48.852;9.152;2022-07-29T10:17:53;26.83;50.09
65972;SHT31;52726;48.852;9.152;2022-07-29T10:20:20;26.62;49.85
65972;SHT31;52726;48.852;9.152;2022-07-29T10:22:47;26.49;51.61
65972;SHT31;52726;48.852;9.152;2022-07-29T10:25:14;26.59;52.12
65972;SHT31;52726;48.852;9.152;2022-07-29T10:27:39;26.51;51.13
65972;SHT31;52726;48.852;9.152;2022-07-29T10:30:06;26.20;51.88
65972;SHT31;52726;48.852;9.152;2022-07-29T10:35:44;25.97;53.03
65972;SHT31;52726;48.852;9.152;2022-07-29T10:44:21;26.10;51.17
65972;SHT31;52726;48.852;9.152;2022-07-29T10:46:48;25.83;51.37
65972;SHT31;52726;48.852;9.152;2022-07-29T10:49:16;25.82;52.61
65972;SHT31;52726;48.852;9.152;2022-07-29T10:51:55;25.67;51.37
65972;SHT31;52726;48.852;9.152;2022-07-29T10:57:21;25.55;52.43
65972;SHT31;52726;48.852;9.152;2022-07-29T10:59:48;25.61;51.99
65972;SHT31;52726;48.852;9.152;2022-07-29T11:07:32;25.31;56.91
65972;SHT31;52726;48.852;9.152;2022-07-29T11:22:58;25.17;58.12
65972;SHT31;52726;48.852;9.152;2022-07-29T11:25:24;25.22;57.90
65972;SHT31;52726;48.852;9.152;2022-07-29T11:27:51;25.35;59.65
65972;SHT31;52726;48.852;9.152;2022-07-29T11:30:17;25.43;59.94
65972;SHT31;52726;48.852;9.152;2022-07-29T11:32:44;25.66;57.71
65972;SHT31;52726;48.852;9.152;2022-07-29T11:35:19;25.86;56.12
65972;SHT31;52726;48.852;9.152;2022-07-29T11:38:23;26.07;55.15
65972;SHT31;52726;48.852;9.152;2022-07-29T11:46:41;26.10;56.11
65972;SHT31;52726;48.852;9.152;2022-07-29T11:49:03;26.10;57.20
65972;SHT31;52726;48.852;9.152;2022-07-29T11:51:32;26.16;56.04
65972;SHT31;52726;48.852;9.152;2022-07-29T11:53:58;26.67;53.61
65972;SHT31;52726;48.852;9.152;2022-07-29T11:56:25;27.33;54.58
65972;SHT31;52726;48.852;9.152;2022-07-29T11:59:03;27.41;54.47
65972;SHT31;52726;48.852;9.152;2022-07-29T12:01:29;27.50;53.76
65972;SHT31;52726;48.852;9.152;2022-07-29T12:04:05;27.82;54.07
65972;SHT31;52726;48.852;9.152;2022-07-29T12:06:32;27.77;53.41
65972;SHT31;52726;48.852;9.152;2022-07-29T12:08:57;27.51;51.79
65972;SHT31;52726;48.852;9.152;2022-07-29T12:11:23;27.50;52.89
65972;SHT31;52726;48.852;9.152;2022-07-29T12:13:50;27.48;51.53
65972;SHT31;52726;48.852;9.152;2022-07-29T12:16:15;27.51;50.77
65972;SHT31;52726;48.852;9.152;2022-07-29T12:18:41;27.38;51.61
65972;SHT31;52726;48.852;9.152;2022-07-29T12:21:06;27.40;51.00
65972;SHT31;52726;48.852;9.152;2022-07-29T12:23:33;27.36;52.01
65972;SHT31;52726;48.852;9.152;2022-07-29T12:25:59;27.10;50.70
65972;SHT31;52726;48.852;9.152;2022-07-29T12:28:25;26.96;50.79
65972;SHT31;52726;48.852;9.152;2022-07-29T12:30:51;26.98;51.61
65972;SHT31;52726;48.852;9.152;2022-07-29T12:35:46;26.56;53.21
65972;SHT31;52726;48.852;9.152;2022-07-29T12:38:13;26.45;54.27
65972;SHT31;52726;48.852;9.152;2022-07-29T12:40:39;26.40;54.86
65972;SHT31;52726;48.852;9.152;2022-07-29T12:43:06;26.38;55.11
65972;SHT31;52726;48.852;9.152;2022-07-29T12:45:36;26.38;54.54
65972;SHT31;52726;48.852;9.152;2022-07-29T12:48:02;26.07;54.50
65972;SHT31;52726;48.852;9.152;2022-07-29T12:50:28;25.98;54.23
65972;SHT31;52726;48.852;9.152;2022-07-29T12:52:53;25.67;54.25
65972;SHT31;52726;48.852;9.152;2022-07-29T12:55:41;25.63;54.15
65972;SHT31;52726;48.852;9.152;2022-07-29T12:58:07;25.45;54.04
65972;SHT31;52726;48.852;9.152;2022-07-29T13:00:33;25.43;54.37
65972;SHT31;52726;48.852;9.152;2022-07-29T13:03:00;25.38;54.77
65972;SHT31;52726;48.852;9.152;2022-07-29T13:05:43;25.19;54.92
65972;SHT31;52726;48.852;9.152;2022-07-29T13:08:16;25.07;55.50
65972;SHT31;52726;48.852;9.152;2022-07-29T13:10:43;24.98;55.72
65972;SHT31;52726;48.852;9.152;2022-07-29T13:13:14;24.90;55.95
65972;SHT31;52726;48.852;9.152;2022-07-29T13:15:41;24.90;56.13
65972;SHT31;52726;48.852;9.152;2022-07-29T13:18:27;24.86;56.64
65972;SHT31;52726;48.852;9.152;2022-07-29T13:20:53;24.73;57.40
65972;SHT31;52726;48.852;9.152;2022-07-29T13:23:18;24.62;55.88
65972;SHT31;52726;48.852;9.152;2022-07-29T13:25:44;24.73;56.28
65972;SHT31;52726;48.852;9.152;2022-07-29T13:28:09;24.76;55.87
65972;SHT31;52726;48.852;9.152;2022-07-29T13:30:45;24.67;56.02
65972;SHT31;52726;48.852;9.152;2022-07-29T13:33:38;24.63;56.09
65972;SHT31;52726;48.852;9.152;2022-07-29T13:39:40;23.97;70.93
65972;SHT31;52726;48.852;9.152;2022-07-29T13:42:23;23.98;72.14
65972;SHT31;52726;48.852;9.152;2022-07-29T13:45:10;24.05;68.62
65972;SHT31;52726;48.852;9.152;2022-07-29T13:48:07;24.25;72.04
65972;SHT31;52726;48.852;9.152;2022-07-29T13:50:33;24.42;68.36
65972;SHT31;52726;48.852;9.152;2022-07-29T13:52:58;24.55;64.84
65972;SHT31;52726;48.852;9.152;2022-07-29T13:55:24;24.70;68.53
65972;SHT31;52726;48.852;9.152;2022-07-29T13:57:59;24.63;66.52
65972;SHT31;52726;48.852;9.152;2022-07-29T14:00:29;24.57;63.82
65972;SHT31;52726;48.852;9.152;2022-07-29T14:02:54;24.33;62.39
65972;SHT31;52726;48.852;9.152;2022-07-29T14:05:20;24.36;67.40
65972;SHT31;52726;48.852;9.152;2022-07-29T14:07:45;24.45;65.51
65972;SHT31;52726;48.852;9.152;2022-07-29T14:10:10;24.55;66.11
65972;SHT31;52726;48.852;9.152;2022-07-29T14:12:36;24.69;67.19
65972;SHT31;52726;48.852;9.152;2022-07-29T14:15:01;24.81;67.77
65972;SHT31;52726;48.852;9.152;2022-07-29T14:17:27;24.86;65.08
65972;SHT31;52726;48.852;9.152;2022-07-29T14:19:55;24.95;64.15
65972;SHT31;52726;48.852;9.152;2022-07-29T14:22:20;25.06;65.08
65972;SHT31;52726;48.852;9.152;2022-07-29T14:24:46;25.10;64.72
65972;SHT31;52726;48.852;9.152;2022-07-29T14:27:11;25.15;64.12
65972;SHT31;52726;48.852;9.152;2022-07-29T14:29:37;25.31;64.25
65972;SHT31;52726;48.852;9.152;2022-07-29T14:32:03;25.39;62.67
65972;SHT31;52726;48.852;9.152;2022-07-29T14:34:28;25.48;63.53
65972;SHT31;52726;48.852;9.152;2022-07-29T14:36:54;25.65;59.71
65972;SHT31;52726;48.852;9.152;2022-07-29T14:39:21;25.63;60.21
65972;SHT31;52726;48.852;9.152;2022-07-29T14:41:48;25.61;63.58
65972;SHT31;52726;48.852;9.152;2022-07-29T14:44:14;25.75;62.04
65972;SHT31;52726;48.852;9.152;2022-07-29T14:46:39;25.76;61.57
65972;SHT31;52726;48.852;9.152;2022-07-29T14:49:05;25.84;63.90
65972;SHT31;52726;48.852;9.152;2022-07-29T14:51:31;25.86;60.59
65972;SHT31;52726;48.852;9.152;2022-07-29T14:53:56;25.69;59.95
65972;SHT31;52726;48.852;9.152;2022-07-29T14:56:22;25.69;59.02
65972;SHT31;52726;48.852;9.152;2022-07-29T14:58:48;25.86;58.85
65972;SHT31;52726;48.852;9.152;2022-07-29T15:01:14;25.97;57.61
65972;SHT31;52726;48.852;9.152;2022-07-29T15:03:39;26.00;56.78
65972;SHT31;52726;48.852;9.152;2022-07-29T15:06:05;25.97;54.76
65972;SHT31;52726;48.852;9.152;2022-07-29T15:08:30;25.84;53.88
65972;SHT31;52726;48.852;9.152;2022-07-29T15:10:56;25.90;54.85
65972;SHT31;52726;48.852;9.152;2022-07-29T15:13:24;25.86;54.08
65972;SHT31;52726;48.852;9.152;2022-07-29T15:15:50;25.89;54.45
65972;SHT31;52726;48.852;9.152;2022-07-29T15:18:15;25.89;55.96
65972;SHT31;52726;48.852;9.152;2022-07-29T15:20:41;25.89;51.94
65972;SHT31;52726;48.852;9.152;2022-07-29T15:23:06;25.83;50.78
65972;SHT31;52726;48.852;9.152;2022-07-29T15:25:35;25.79;53.26
65972;SHT31;52726;48.852;9.152;2022-07-29T15:28:02;25.86;49.83
65972;SHT31;52726;48.852;9.152;2022-07-29T15:30:35;25.87;50.06
65972;SHT31;52726;48.852;9.152;2022-07-29T15:33:06;25.96;53.94
65972;SHT31;52726;48.852;9.152;2022-07-29T15:35:33;25.89;48.07
65972;SHT31;52726;48.852;9.152;2022-07-29T15:37:58;25.89;46.89
65972;SHT31;52726;48.852;9.152;2022-07-29T15:40:24;25.84;45.49
65972;SHT31;52726;48.852;9.152;2022-07-29T15:42:50;25.77;43.53
65972;SHT31;52726;48.852;9.152;2022-07-29T15:45:15;25.72;43.34
65972;SHT31;52726;48.852;9.152;2022-07-29T15:47:41;25.69;43.96
65972;SHT31;52726;48.852;9.152;2022-07-29T15:50:07;25.59;43.16
65972;SHT31;52726;48.852;9.152;2022-07-29T15:52:37;25.53;43.30
65972;SHT31;52726;48.852;9.152;2022-07-29T15:55:02;25.58;44.12
65972;SHT31;52726;48.852;9.152;2022-07-29T15:57:28;25.56;42.74
65972;SHT31;52726;48.852;9.152;2022-07-29T15:59:53;25.63;44.12
65972;SHT31;52726;48.852;9.152;2022-07-29T16:02:19;25.67;43.09
65972;SHT31;52726;48.852;9.152;2022-07-29T16:04:44;25.70;43.61
65972;SHT31;52726;48.852;9.152;2022-07-29T16:07:10;25.70;42.86
65972;SHT31;52726;48.852;9.152;2022-07-29T16:09:35;25.73;43.81
65972;SHT31;52726;48.852;9.152;2022-07-29T16:12:00;25.79;42.90
65972;SHT31;52726;48.852;9.152;2022-07-29T16:14:48;25.82;43.77
65972;SHT31;52726;48.852;9.152;2022-07-29T16:20:52;25.89;44.44
65972;SHT31;52726;48.852;9.152;2022-07-29T16:27:20;25.82;44.75
65972;SHT31;52726;48.852;9.152;2022-07-29T16:36:19;25.75;43.22